Time;durP1;ratioP1;P1;durP2;ratioP2;P2;SDS_P1;SDS_P2;PMS_P1;PMS_P2;Temp;Humidity;BMP_temperature;BMP_pressure;BME280_temperature;BME280_humidity;BME280_pressure;Samples;Min_cycle;Max_cycle;Signal;HPM_P1;HPM_P2
2023/03/03 00:02:05;;;;;;;22.80;13.40;;;;;;;-128.00;-1.00;-1.00;102477;1256;1002972;-48
2023/03/03 00:04:33;;;;;;;20.20;12.40;;;;;;;-128.00;-1.00;-1.00;102882;1257;1011030;-47
2023/03/03 00:07:02;;;;;;;20.90;12.40;;;;;;;-128.00;-1.00;-1.00;102566;1258;1011400;-46
2023/03/03 00:09:30;;;;;;;24.40;12.30;;;;;;;-128.00;-1.00;-1.00;102286;1257;1002659;-47
2023/03/03 00:11:58;;;;;;;25.10;12.50;;;;;;;-128.00;-1.00;-1.00;102531;1258;1002718;-45
2023/03/03 00:14:31;;;;;;;22.50;13.60;;;;;;;-128.00;-1.00;-1.00;102353;1260;1002602;-47
2023/03/03 00:17:00;;;;;;;17.40;10.30;;;;;;;-128.00;-1.00;-1.00;102572;1256;1011198;-46
2023/03/03 00:19:29;;;;;;;23.70;12.90;;;;;;;-128.00;-1.00;-1.00;102826;1258;1010575;-47
2023/03/03 00:21:57;;;;;;;19.30;11.50;;;;;;;-128.00;-1.00;-1.00;102870;1257;1013649;-46
2023/03/03 00:24:35;;;;;;;23.20;12.40;;;;;;;-128.00;-1.00;-1.00;102952;1257;1012223;-48
2023/03/03 00:27:30;;;;;;;24.90;10.90;;;;;;;-128.00;-1.00;-1.00;103039;1254;1012878;-47
2023/03/03 00:29:59;;;;;;;18.50;10.70;;;;;;;-128.00;-1.00;-1.00;102494;1256;1010213;-47
2023/03/03 00:32:42;;;;;;;14.90;8.30;;;;;;;-128.00;-1.00;-1.00;102438;1258;1011001;-48
2023/03/03 00:35:38;;;;;;;17.30;9.80;;;;;;;-128.00;-1.00;-1.00;102434;1256;1013066;-47
2023/03/03 00:38:18;;;;;;;20.10;10.10;;;;;;;-128.00;-1.00;-1.00;102261;1257;1012509;-46
2023/03/03 00:40:46;;;;;;;19.20;9.80;;;;;;;-128.00;-1.00;-1.00;102345;1256;1012849;-47
2023/03/03 00:43:22;;;;;;;15.00;8.70;;;;;;;-128.00;-1.00;-1.00;104758;1258;1010836;-47
2023/03/03 00:45:54;;;;;;;13.10;7.80;;;;;;;-128.00;-1.00;-1.00;102892;1255;1010640;-46
2023/03/03 00:48:22;;;;;;;14.90;7.70;;;;;;;-128.00;-1.00;-1.00;102507;1256;1012954;-48
2023/03/03 00:50:58;;;;;;;13.30;8.10;;;;;;;-128.00;-1.00;-1.00;102895;1258;1012695;-46
2023/03/03 00:53:27;;;;;;;11.20;6.30;;;;;;;-128.00;-1.00;-1.00;102715;1254;1012350;-48
2023/03/03 00:55:55;;;;;;;11.10;6.70;;;;;;;-128.00;-1.00;-1.00;102583;1256;1009646;-47
2023/03/03 00:58:24;;;;;;;12.50;7.50;;;;;;;-128.00;-1.00;-1.00;102718;1253;1012092;-47
2023/03/03 01:00:53;;;;;;;10.80;6.30;;;;;;;-128.00;-1.00;-1.00;102958;1256;1013082;-48
2023/03/03 01:03:25;;;;;;;11.80;6.90;;;;;;;-128.00;-1.00;-1.00;102358;1259;1015052;-47
2023/03/03 01:05:53;;;;;;;12.60;8.10;;;;;;;-128.00;-1.00;-1.00;102736;1258;1012894;-48
2023/03/03 01:08:21;;;;;;;13.10;7.70;;;;;;;-128.00;-1.00;-1.00;102564;1258;1004274;-48
2023/03/03 01:10:55;;;;;;;15.20;8.50;;;;;;;-128.00;-1.00;-1.00;102587;1259;1011441;-47
2023/03/03 01:13:28;;;;;;;12.30;7.30;;;;;;;-128.00;-1.00;-1.00;102705;1257;1012783;-47
2023/03/03 01:15:57;;;;;;;10.10;7.00;;;;;;;-128.00;-1.00;-1.00;102506;1259;1012265;-48
2023/03/03 01:18:26;;;;;;;10.80;6.50;;;;;;;-128.00;-1.00;-1.00;102522;1258;1013011;-47
2023/03/03 01:20:54;;;;;;;9.20;5.90;;;;;;;-128.00;-1.00;-1.00;102772;1258;1010595;-47
2023/03/03 01:23:27;;;;;;;10.10;5.40;;;;;;;-128.00;-1.00;-1.00;102717;1259;1011229;-48
2023/03/03 01:25:56;;;;;;;7.80;5.20;;;;;;;-128.00;-1.00;-1.00;102423;1257;1012724;-47
2023/03/03 01:28:24;;;;;;;10.10;4.80;;;;;;;-128.00;-1.00;-1.00;102270;1259;1002624;-48
2023/03/03 01:30:52;;;;;;;7.10;4.30;;;;;;;-128.00;-1.00;-1.00;102127;1254;1002505;-46
2023/03/03 01:33:21;;;;;;;8.50;4.50;;;;;;;-128.00;-1.00;-1.00;102663;1258;1003053;-46
2023/03/03 01:35:49;;;;;;;10.50;4.80;;;;;;;-128.00;-1.00;-1.00;102364;1258;1011468;-47
2023/03/03 01:38:18;;;;;;;11.50;5.90;;;;;;;-128.00;-1.00;-1.00;102275;1258;1013166;-48
2023/03/03 01:40:53;;;;;;;10.10;5.50;;;;;;;-128.00;-1.00;-1.00;102350;1256;1005049;-47
2023/03/03 01:43:22;;;;;;;13.30;6.40;;;;;;;-128.00;-1.00;-1.00;102412;1257;1013462;-46
2023/03/03 01:45:50;;;;;;;7.90;5.30;;;;;;;-128.00;-1.00;-1.00;102814;1254;1010556;-48
2023/03/03 01:48:52;;;;;;;9.30;5.80;;;;;;;-128.00;-1.00;-1.00;102462;1253;1010835;-48
2023/03/03 01:51:38;;;;;;;9.70;5.60;;;;;;;-128.00;-1.00;-1.00;102158;1259;1012400;-48
2023/03/03 01:54:11;;;;;;;13.70;5.60;;;;;;;-128.00;-1.00;-1.00;103051;1253;1012161;-49
2023/03/03 01:56:40;;;;;;;9.50;5.10;;;;;;;-128.00;-1.00;-1.00;102576;1259;1014135;-48
2023/03/03 01:59:15;;;;;;;10.40;5.30;;;;;;;-128.00;-1.00;-1.00;103336;1257;1011807;-48
2023/03/03 02:01:43;;;;;;;9.30;4.90;;;;;;;-128.00;-1.00;-1.00;102499;1259;1011082;-48
2023/03/03 02:04:17;;;;;;;6.30;3.60;;;;;;;-128.00;-1.00;-1.00;102174;1259;1012778;-48
2023/03/03 02:06:50;;;;;;;7.30;4.20;;;;;;;-128.00;-1.00;-1.00;102483;1258;1012545;-48
2023/03/03 02:09:46;;;;;;;5.80;3.90;;;;;;;-128.00;-1.00;-1.00;102447;1257;1013604;-48
2023/03/03 02:12:18;;;;;;;6.40;4.30;;;;;;;-128.00;-1.00;-1.00;102343;1259;1011057;-49
2023/03/03 02:14:46;;;;;;;6.00;3.90;;;;;;;-128.00;-1.00;-1.00;102641;1256;1011389;-45
2023/03/03 02:17:18;;;;;;;4.50;3.00;;;;;;;-128.00;-1.00;-1.00;102679;1257;1015696;-47
2023/03/03 02:20:25;;;;;;;6.00;3.40;;;;;;;-128.00;-1.00;-1.00;102745;1257;1013645;-48
2023/03/03 02:23:09;;;;;;;5.60;3.40;;;;;;;-128.00;-1.00;-1.00;102946;1255;1013376;-48
2023/03/03 02:26:10;;;;;;;5.70;3.60;;;;;;;-128.00;-1.00;-1.00;102571;1257;1009987;-48
2023/03/03 02:28:39;;;;;;;4.80;3.30;;;;;;;-128.00;-1.00;-1.00;102367;1257;1011232;-47
2023/03/03 02:31:12;;;;;;;7.60;4.20;;;;;;;-128.00;-1.00;-1.00;102530;1257;1013302;-47
2023/03/03 02:33:51;;;;;;;5.10;3.40;;;;;;;-128.00;-1.00;-1.00;102949;1256;1012710;-49
2023/03/03 02:36:22;;;;;;;5.50;3.80;;;;;;;-128.00;-1.00;-1.00;102626;1254;1012787;-46
2023/03/03 02:39:09;;;;;;;7.10;4.90;;;;;;;-128.00;-1.00;-1.00;103099;1256;1009814;-48
2023/03/03 02:41:55;;;;;;;6.20;3.40;;;;;;;-128.00;-1.00;-1.00;102454;1257;1011389;-46
2023/03/03 02:44:25;;;;;;;7.00;3.70;;;;;;;-128.00;-1.00;-1.00;103301;1257;1013004;-47
2023/03/03 02:46:54;;;;;;;10.40;5.30;;;;;;;-128.00;-1.00;-1.00;102636;1254;1013263;-48
2023/03/03 02:49:24;;;;;;;8.40;4.70;;;;;;;-128.00;-1.00;-1.00;102583;1254;1013052;-48
2023/03/03 02:51:52;;;;;;;8.30;4.70;;;;;;;-128.00;-1.00;-1.00;102432;1259;1011000;-47
2023/03/03 02:54:21;;;;;;;11.00;6.00;;;;;;;-128.00;-1.00;-1.00;102381;1260;1011583;-48
2023/03/03 02:56:50;;;;;;;8.40;6.10;;;;;;;-128.00;-1.00;-1.00;102632;1257;1013540;-48
2023/03/03 02:59:18;;;;;;;10.80;5.80;;;;;;;-128.00;-1.00;-1.00;102700;1257;1011935;-50
2023/03/03 03:01:48;;;;;;;9.40;5.50;;;;;;;-128.00;-1.00;-1.00;102740;1258;1013082;-49
2023/03/03 03:04:22;;;;;;;7.60;5.00;;;;;;;-128.00;-1.00;-1.00;102771;1257;1010672;-49
2023/03/03 03:06:51;;;;;;;13.10;6.90;;;;;;;-128.00;-1.00;-1.00;102502;1256;1011924;-49
2023/03/03 03:09:20;;;;;;;11.80;6.20;;;;;;;-128.00;-1.00;-1.00;102304;1253;1013215;-49
2023/03/03 03:11:49;;;;;;;13.60;7.20;;;;;;;-128.00;-1.00;-1.00;102597;1260;1013586;-48
2023/03/03 03:14:24;;;;;;;13.90;6.60;;;;;;;-128.00;-1.00;-1.00;102896;1257;1012170;-49
2023/03/03 03:16:54;;;;;;;9.70;6.00;;;;;;;-128.00;-1.00;-1.00;104337;1257;1010880;-49
2023/03/03 03:19:22;;;;;;;10.40;6.30;;;;;;;-128.00;-1.00;-1.00;102716;1254;1002954;-49
2023/03/03 03:21:51;;;;;;;9.70;5.30;;;;;;;-128.00;-1.00;-1.00;102367;1260;1013778;-50
2023/03/03 03:24:19;;;;;;;13.80;6.70;;;;;;;-128.00;-1.00;-1.00;102811;1257;1013176;-49
2023/03/03 03:26:52;;;;;;;12.00;6.80;;;;;;;-128.00;-1.00;-1.00;102551;1254;1012918;-50
2023/03/03 03:29:22;;;;;;;10.30;6.90;;;;;;;-128.00;-1.00;-1.00;102384;1254;1010111;-50
2023/03/03 03:31:51;;;;;;;12.70;7.00;;;;;;;-128.00;-1.00;-1.00;103934;1256;1011071;-49
2023/03/03 03:35:18;;;;;;;13.80;8.20;;;;;;;-128.00;-1.00;-1.00;100104;1295;1002507;-49
2023/03/03 03:37:46;;;;;;;14.10;8.30;;;;;;;-128.00;-1.00;-1.00;101644;1267;1010753;-50
2023/03/03 03:40:14;;;;;;;15.30;7.60;;;;;;;-128.00;-1.00;-1.00;101530;1270;1004193;-48
2023/03/03 03:42:43;;;;;;;14.70;7.60;;;;;;;-128.00;-1.00;-1.00;101863;1266;1012683;-48
2023/03/03 03:45:14;;;;;;;12.70;8.00;;;;;;;-128.00;-1.00;-1.00;102443;1269;1012957;-50
2023/03/03 03:47:44;;;;;;;15.50;7.50;;;;;;;-128.00;-1.00;-1.00;101724;1270;1012865;-49
2023/03/03 03:50:13;;;;;;;12.60;7.20;;;;;;;-128.00;-1.00;-1.00;101277;1266;1013417;-51
2023/03/03 03:52:46;;;;;;;10.70;6.00;;;;;;;-128.00;-1.00;-1.00;101427;1269;1010887;-49
2023/03/03 03:55:15;;;;;;;9.90;6.20;;;;;;;-128.00;-1.00;-1.00;103002;1266;1013200;-48
2023/03/03 03:57:49;;;;;;;10.40;5.70;;;;;;;-128.00;-1.00;-1.00;101871;1269;1012662;-48
2023/03/03 04:00:40;;;;;;;9.70;4.60;;;;;;;-128.00;-1.00;-1.00;101800;1269;1013993;-49
2023/03/03 04:03:10;;;;;;;7.20;4.90;;;;;;;-128.00;-1.00;-1.00;101982;1267;1010273;-47
2023/03/03 04:05:39;;;;;;;7.00;4.70;;;;;;;-128.00;-1.00;-1.00;102027;1270;1011338;-48
2023/03/03 04:08:08;;;;;;;7.70;4.50;;;;;;;-128.00;-1.00;-1.00;102054;1267;1012827;-48
2023/03/03 04:10:38;;;;;;;7.80;5.20;;;;;;;-128.00;-1.00;-1.00;101881;1269;1013133;-46
2023/03/03 04:13:06;;;;;;;7.80;4.40;;;;;;;-128.00;-1.00;-1.00;102004;1267;1013626;-49
2023/03/03 04:15:34;;;;;;;6.80;4.70;;;;;;;-128.00;-1.00;-1.00;102357;1269;1002922;-47
2023/03/03 04:18:03;;;;;;;7.40;4.80;;;;;;;-128.00;-1.00;-1.00;101855;1269;1010998;-48
2023/03/03 04:20:31;;;;;;;7.90;4.10;;;;;;;-128.00;-1.00;-1.00;105627;1265;1013245;-48
2023/03/03 04:22:59;;;;;;;10.70;5.00;;;;;;;-128.00;-1.00;-1.00;103108;1269;1002820;-48
2023/03/03 04:25:27;;;;;;;7.80;4.30;;;;;;;-128.00;-1.00;-1.00;101689;1267;1002749;-48
2023/03/03 04:27:55;;;;;;;8.90;4.30;;;;;;;-128.00;-1.00;-1.00;101878;1265;1002540;-48
2023/03/03 04:30:23;;;;;;;7.30;4.30;;;;;;;-128.00;-1.00;-1.00;102051;1269;1011132;-48
2023/03/03 04:32:56;;;;;;;6.80;4.30;;;;;;;-128.00;-1.00;-1.00;101723;1270;1012862;-48
2023/03/03 04:35:25;;;;;;;8.40;5.60;;;;;;;-128.00;-1.00;-1.00;102311;1268;1012389;-48
2023/03/03 04:37:54;;;;;;;9.60;5.20;;;;;;;-128.00;-1.00;-1.00;102819;1269;1013964;-49
2023/03/03 04:40:21;;;;;;;10.50;4.80;;;;;;;-128.00;-1.00;-1.00;102294;1269;1004313;-48
2023/03/03 04:42:50;;;;;;;6.80;4.70;;;;;;;-128.00;-1.00;-1.00;101909;1267;1012185;-48
2023/03/03 04:45:22;;;;;;;9.50;5.30;;;;;;;-128.00;-1.00;-1.00;101927;1269;1013077;-48
2023/03/03 04:47:50;;;;;;;6.20;4.60;;;;;;;-128.00;-1.00;-1.00;102262;1266;1002835;-47
2023/03/03 04:50:18;;;;;;;8.80;4.90;;;;;;;-128.00;-1.00;-1.00;101995;1270;1012889;-48
2023/03/03 04:52:46;;;;;;;8.20;4.40;;;;;;;-128.00;-1.00;-1.00;101879;1267;1009970;-49
2023/03/03 04:55:15;;;;;;;9.20;4.80;;;;;;;-128.00;-1.00;-1.00;101904;1269;1011243;-48
2023/03/03 04:57:45;;;;;;;7.30;5.00;;;;;;;-128.00;-1.00;-1.00;102028;1265;1011936;-48
2023/03/03 05:00:13;;;;;;;8.80;5.20;;;;;;;-128.00;-1.00;-1.00;101781;1269;1012444;-49
2023/03/03 05:02:46;;;;;;;7.30;4.40;;;;;;;-128.00;-1.00;-1.00;102864;1262;1012664;-48
2023/03/03 05:05:14;;;;;;;6.10;4.00;;;;;;;-128.00;-1.00;-1.00;102087;1264;1009777;-49
2023/03/03 05:07:42;;;;;;;12.10;5.30;;;;;;;-128.00;-1.00;-1.00;102828;1262;1012431;-47
2023/03/03 05:10:11;;;;;;;9.10;4.50;;;;;;;-128.00;-1.00;-1.00;102429;1259;1012284;-48
2023/03/03 05:12:39;;;;;;;6.50;3.90;;;;;;;-128.00;-1.00;-1.00;102070;1262;1002198;-47
2023/03/03 05:15:07;;;;;;;9.00;5.20;;;;;;;-128.00;-1.00;-1.00;102456;1262;1002540;-49
2023/03/03 05:17:36;;;;;;;7.90;4.40;;;;;;;-128.00;-1.00;-1.00;101931;1257;1010649;-48
2023/03/03 05:20:07;;;;;;;11.30;5.00;;;;;;;-128.00;-1.00;-1.00;103264;1262;1011621;-48
2023/03/03 05:22:37;;;;;;;9.00;4.70;;;;;;;-128.00;-1.00;-1.00;103387;1260;1012444;-48
2023/03/03 05:25:06;;;;;;;6.70;4.50;;;;;;;-128.00;-1.00;-1.00;102674;1262;1013430;-48
2023/03/03 05:27:34;;;;;;;7.70;4.50;;;;;;;-128.00;-1.00;-1.00;102875;1257;1014424;-48
2023/03/03 05:30:03;;;;;;;7.80;4.80;;;;;;;-128.00;-1.00;-1.00;102382;1258;1002620;-48
2023/03/03 05:32:36;;;;;;;6.30;3.60;;;;;;;-128.00;-1.00;-1.00;101827;1259;1011624;-49
2023/03/03 05:35:05;;;;;;;8.10;3.90;;;;;;;-128.00;-1.00;-1.00;102387;1262;1012939;-49
2023/03/03 05:37:33;;;;;;;6.80;4.10;;;;;;;-128.00;-1.00;-1.00;102325;1260;1012246;-48
2023/03/03 05:40:01;;;;;;;6.20;3.10;;;;;;;-128.00;-1.00;-1.00;102195;1260;1003124;-48
2023/03/03 05:42:30;;;;;;;5.90;4.10;;;;;;;-128.00;-1.00;-1.00;102438;1260;1010149;-49
2023/03/03 05:44:58;;;;;;;7.50;3.80;;;;;;;-128.00;-1.00;-1.00;102339;1257;1011305;-47
2023/03/03 05:47:25;;;;;;;5.90;3.90;;;;;;;-128.00;-1.00;-1.00;102285;1258;1004245;-48
2023/03/03 05:49:54;;;;;;;6.30;3.60;;;;;;;-128.00;-1.00;-1.00;102270;1262;1012274;-48
2023/03/03 05:52:23;;;;;;;6.20;4.20;;;;;;;-128.00;-1.00;-1.00;102418;1261;1012942;-49
2023/03/03 05:54:57;;;;;;;10.60;4.20;;;;;;;-128.00;-1.00;-1.00;103364;1262;1010031;-49
2023/03/03 05:57:26;;;;;;;6.90;3.90;;;;;;;-128.00;-1.00;-1.00;102904;1258;1004627;-50
2023/03/03 05:59:54;;;;;;;5.40;3.50;;;;;;;-128.00;-1.00;-1.00;102473;1261;1012677;-45
2023/03/03 06:02:22;;;;;;;7.20;3.90;;;;;;;-128.00;-1.00;-1.00;102842;1261;1002647;-48
2023/03/03 06:04:50;;;;;;;7.00;4.10;;;;;;;-128.00;-1.00;-1.00;102276;1258;1014758;-49
2023/03/03 06:07:18;;;;;;;7.10;4.30;;;;;;;-128.00;-1.00;-1.00;102243;1259;1011818;-48
2023/03/03 06:09:46;;;;;;;8.00;3.80;;;;;;;-128.00;-1.00;-1.00;102293;1260;1002794;-50
2023/03/03 06:12:14;;;;;;;6.90;3.70;;;;;;;-128.00;-1.00;-1.00;102071;1261;1002611;-48
2023/03/03 06:14:44;;;;;;;5.10;3.90;;;;;;;-128.00;-1.00;-1.00;102193;1260;1012758;-50
2023/03/03 06:17:12;;;;;;;7.80;3.90;;;;;;;-128.00;-1.00;-1.00;102545;1259;1012632;-47
2023/03/03 06:19:40;;;;;;;7.60;4.60;;;;;;;-128.00;-1.00;-1.00;102317;1262;1004185;-49
2023/03/03 06:22:09;;;;;;;6.60;3.70;;;;;;;-128.00;-1.00;-1.00;103033;1262;1010819;-49
2023/03/03 06:24:40;;;;;;;5.90;3.70;;;;;;;-128.00;-1.00;-1.00;102260;1259;1012594;-47
2023/03/03 06:27:09;;;;;;;7.70;4.40;;;;;;;-128.00;-1.00;-1.00;102027;1262;1003056;-48
2023/03/03 06:29:37;;;;;;;4.90;3.00;;;;;;;-128.00;-1.00;-1.00;102226;1262;1012118;-48
2023/03/03 06:32:05;;;;;;;5.80;3.90;;;;;;;-128.00;-1.00;-1.00;103714;1262;1002589;-49
2023/03/03 06:34:33;;;;;;;5.20;3.70;;;;;;;-128.00;-1.00;-1.00;102163;1259;1011013;-48
2023/03/03 06:37:02;;;;;;;9.10;4.50;;;;;;;-128.00;-1.00;-1.00;102273;1260;1012557;-48
2023/03/03 06:39:30;;;;;;;6.90;3.10;;;;;;;-128.00;-1.00;-1.00;102413;1259;1013400;-47
2023/03/03 06:41:58;;;;;;;7.90;4.20;;;;;;;-128.00;-1.00;-1.00;102010;1257;1002568;-49
2023/03/03 06:44:26;;;;;;;4.80;3.30;;;;;;;-128.00;-1.00;-1.00;102613;1261;1002881;-49
2023/03/03 06:46:56;;;;;;;5.20;3.80;;;;;;;-128.00;-1.00;-1.00;102629;1262;1011811;-48
2023/03/03 06:49:26;;;;;;;6.60;3.70;;;;;;;-128.00;-1.00;-1.00;102521;1262;1013558;-48
2023/03/03 06:51:54;;;;;;;8.80;3.70;;;;;;;-128.00;-1.00;-1.00;103246;1263;1002450;-48
2023/03/03 06:54:28;;;;;;;5.90;3.50;;;;;;;-128.00;-1.00;-1.00;102439;1265;1002222;-48
2023/03/03 06:56:59;;;;;;;6.30;3.50;;;;;;;-128.00;-1.00;-1.00;102648;1260;1010660;-49
2023/03/03 06:59:28;;;;;;;4.50;2.30;;;;;;;-128.00;-1.00;-1.00;102003;1264;1011086;-47
2023/03/03 07:01:56;;;;;;;6.00;3.40;;;;;;;-128.00;-1.00;-1.00;102068;1261;1012786;-46
2023/03/03 07:04:32;;;;;;;5.70;3.10;;;;;;;-128.00;-1.00;-1.00;102139;1265;1002611;-48
2023/03/03 07:07:20;;;;;;;7.40;3.60;;;;;;;-128.00;-1.00;-1.00;102350;1260;1013478;-49
2023/03/03 07:09:50;;;;;;;6.20;3.10;;;;;;;-128.00;-1.00;-1.00;101856;1262;1010801;-49
2023/03/03 07:12:25;;;;;;;4.60;2.90;;;;;;;-128.00;-1.00;-1.00;102102;1257;1011176;-49
2023/03/03 07:15:12;;;;;;;6.00;4.00;;;;;;;-128.00;-1.00;-1.00;102286;1260;1012520;-49
2023/03/03 07:17:43;;;;;;;5.10;3.20;;;;;;;-128.00;-1.00;-1.00;102061;1262;1012735;-47
2023/03/03 07:20:18;;;;;;;3.80;2.70;;;;;;;-128.00;-1.00;-1.00;102142;1257;1013453;-50
2023/03/03 07:22:47;;;;;;;5.20;3.40;;;;;;;-128.00;-1.00;-1.00;103080;1261;1010191;-49
2023/03/03 07:25:25;;;;;;;5.60;3.20;;;;;;;-128.00;-1.00;-1.00;102293;1260;1011462;-50
2023/03/03 07:27:55;;;;;;;5.90;3.20;;;;;;;-128.00;-1.00;-1.00;102571;1261;1013235;-49
2023/03/03 07:30:25;;;;;;;5.60;3.50;;;;;;;-128.00;-1.00;-1.00;102104;1262;1012789;-48
2023/03/03 07:32:57;;;;;;;9.00;3.80;;;;;;;-128.00;-1.00;-1.00;102666;1257;1012423;-51
2023/03/03 07:35:39;;;;;;;6.80;4.70;;;;;;;-128.00;-1.00;-1.00;102202;1260;1010825;-49
2023/03/03 07:38:23;;;;;;;7.80;4.20;;;;;;;-128.00;-1.00;-1.00;102199;1257;1011516;-49
2023/03/03 07:40:53;;;;;;;8.90;4.10;;;;;;;-128.00;-1.00;-1.00;102234;1259;1013560;-49
2023/03/03 07:43:29;;;;;;;9.20;4.90;;;;;;;-128.00;-1.00;-1.00;102192;1257;1012065;-45
2023/03/03 07:46:02;;;;;;;5.40;4.10;;;;;;;-128.00;-1.00;-1.00;102227;1258;1012345;-49
2023/03/03 07:48:35;;;;;;;7.60;3.80;;;;;;;-128.00;-1.00;-1.00;102255;1257;1010234;-49
2023/03/03 07:51:12;;;;;;;9.70;5.10;;;;;;;-128.00;-1.00;-1.00;102212;1260;1011030;-48
2023/03/03 07:53:42;;;;;;;8.20;5.80;;;;;;;-128.00;-1.00;-1.00;102037;1260;1012343;-49
2023/03/03 07:56:14;;;;;;;8.30;5.20;;;;;;;-128.00;-1.00;-1.00;102856;1258;1013136;-49
2023/03/03 07:58:42;;;;;;;6.00;4.50;;;;;;;-128.00;-1.00;-1.00;102688;1256;1012467;-49
2023/03/03 08:01:39;;;;;;;7.70;4.60;;;;;;;-128.00;-1.00;-1.00;102333;1257;1003790;-50
2023/03/03 08:04:37;;;;;;;10.10;4.20;;;;;;;-128.00;-1.00;-1.00;102118;1260;1011747;-48
2023/03/03 08:07:11;;;;;;;12.00;5.60;;;;;;;-128.00;-1.00;-1.00;102467;1257;1012307;-48
2023/03/03 08:09:45;;;;;;;10.80;4.20;;;;;;;-128.00;-1.00;-1.00;102122;1260;1013236;-49
2023/03/03 08:12:35;;;;;;;11.70;4.10;;;;;;;-128.00;-1.00;-1.00;102365;1257;1012843;-49
2023/03/03 08:15:17;;;;;;;5.30;2.90;;;;;;;-128.00;-1.00;-1.00;102082;1257;1010773;-49
2023/03/03 08:17:46;;;;;;;7.50;4.00;;;;;;;-128.00;-1.00;-1.00;102113;1256;1010983;-49
2023/03/03 08:20:32;;;;;;;8.20;5.40;;;;;;;-128.00;-1.00;-1.00;102251;1260;1012565;-49
2023/03/03 08:23:01;;;;;;;7.50;3.90;;;;;;;-128.00;-1.00;-1.00;102274;1261;1012494;-50
2023/03/03 08:25:29;;;;;;;9.70;5.70;;;;;;;-128.00;-1.00;-1.00;102904;1260;1003698;-48
2023/03/03 08:27:57;;;;;;;8.30;4.90;;;;;;;-128.00;-1.00;-1.00;102865;1259;1002529;-49
2023/03/03 08:30:25;;;;;;;8.10;5.10;;;;;;;-128.00;-1.00;-1.00;102269;1260;1004408;-50
2023/03/03 08:32:53;;;;;;;7.40;5.50;;;;;;;-128.00;-1.00;-1.00;102244;1257;1013111;-51
2023/03/03 08:35:21;;;;;;;10.80;6.60;;;;;;;-128.00;-1.00;-1.00;102324;1260;1012872;-50
2023/03/03 08:37:49;;;;;;;8.80;6.10;;;;;;;-128.00;-1.00;-1.00;102642;1259;1003209;-50
2023/03/03 08:40:18;;;;;;;13.40;7.10;;;;;;;-128.00;-1.00;-1.00;101965;1260;1010673;-51
2023/03/03 08:42:46;;;;;;;14.10;5.80;;;;;;;-128.00;-1.00;-1.00;101908;1259;1002281;-50
2023/03/03 08:45:14;;;;;;;10.30;6.20;;;;;;;-128.00;-1.00;-1.00;101854;1257;1016432;-46
2023/03/03 08:47:43;;;;;;;10.30;6.10;;;;;;;-128.00;-1.00;-1.00;102332;1257;1013535;-47
2023/03/03 08:50:12;;;;;;;9.10;5.30;;;;;;;-128.00;-1.00;-1.00;102655;1260;1013181;-47
2023/03/03 08:52:40;;;;;;;7.70;5.40;;;;;;;-128.00;-1.00;-1.00;102245;1261;1010293;-48
2023/03/03 08:55:08;;;;;;;7.60;5.00;;;;;;;-128.00;-1.00;-1.00;102036;1261;1002860;-51
2023/03/03 08:57:38;;;;;;;7.90;5.30;;;;;;;-128.00;-1.00;-1.00;102218;1259;1013383;-46
2023/03/03 09:00:08;;;;;;;7.50;5.10;;;;;;;-128.00;-1.00;-1.00;102775;1260;1003640;-48
2023/03/03 09:02:36;;;;;;;8.50;5.40;;;;;;;-128.00;-1.00;-1.00;102062;1257;1013580;-46
2023/03/03 09:05:05;;;;;;;7.70;5.30;;;;;;;-128.00;-1.00;-1.00;102223;1257;1010728;-50
2023/03/03 09:07:33;;;;;;;6.70;4.30;;;;;;;-128.00;-1.00;-1.00;102355;1260;1010700;-49
2023/03/03 09:10:01;;;;;;;8.10;5.10;;;;;;;-128.00;-1.00;-1.00;102919;1260;1013292;-49
2023/03/03 09:12:40;;;;;;;8.70;5.50;;;;;;;-128.00;-1.00;-1.00;101954;1262;1012975;-47
2023/03/03 09:15:14;;;;;;;7.70;4.50;;;;;;;-128.00;-1.00;-1.00;102092;1262;1012918;-47
2023/03/03 09:17:43;;;;;;;6.20;4.10;;;;;;;-128.00;-1.00;-1.00;102240;1260;1010197;-48
2023/03/03 09:20:26;;;;;;;6.00;4.50;;;;;;;-128.00;-1.00;-1.00;102306;1261;1011758;-51
2023/03/03 09:22:54;;;;;;;6.80;4.30;;;;;;;-128.00;-1.00;-1.00;102365;1260;1013448;-47
2023/03/03 09:25:31;;;;;;;7.00;4.40;;;;;;;-128.00;-1.00;-1.00;102350;1262;1013398;-48
2023/03/03 09:28:02;;;;;;;6.70;5.30;;;;;;;-128.00;-1.00;-1.00;102190;1257;1012539;-50
2023/03/03 09:30:38;;;;;;;9.00;5.40;;;;;;;-128.00;-1.00;-1.00;103423;1262;1010911;-48
2023/03/03 09:33:41;;;;;;;8.10;4.70;;;;;;;-128.00;-1.00;-1.00;103298;1260;1010445;-49
2023/03/03 09:36:26;;;;;;;10.50;5.30;;;;;;;-128.00;-1.00;-1.00;102493;1261;1013346;-50
2023/03/03 09:38:55;;;;;;;;;;;;;;;-128.00;-1.00;-1.00;102148;1261;1013290;-48
2023/03/03 09:41:54;;;;;;;7.20;3.90;;;;;;;-128.00;-1.00;-1.00;102976;1260;1012726;-49
2023/03/03 09:44:56;;;;;;;9.00;5.20;;;;;;;-128.00;-1.00;-1.00;102086;1258;1010114;-50
2023/03/03 09:47:34;;;;;;;8.00;5.70;;;;;;;-128.00;-1.00;-1.00;101939;1260;1011359;-51
2023/03/03 09:50:25;;;;;;;6.80;5.00;;;;;;;-128.00;-1.00;-1.00;102111;1256;1012236;-48
2023/03/03 09:53:08;;;;;;;8.60;5.30;;;;;;;-128.00;-1.00;-1.00;102591;1259;1012581;-49
2023/03/03 09:55:43;;;;;;;10.80;5.80;;;;;;;-128.00;-1.00;-1.00;103153;1259;1012291;-46
2023/03/03 09:58:44;;;;;;;8.50;5.00;;;;;;;-128.00;-1.00;-1.00;102243;1257;1010301;-47
2023/03/03 10:01:25;;;;;;;6.50;3.90;;;;;;;-128.00;-1.00;-1.00;102583;1257;1012036;-48
2023/03/03 10:04:04;;;;;;;8.20;4.80;;;;;;;-128.00;-1.00;-1.00;104055;1256;1013224;-51
2023/03/03 10:07:02;;;;;;;6.90;3.80;;;;;;;-128.00;-1.00;-1.00;103692;1259;1012560;-48
2023/03/03 10:09:44;;;;;;;8.60;3.90;;;;;;;-128.00;-1.00;-1.00;101682;1270;1013379;-50
2023/03/03 10:12:38;;;;;;;5.50;3.60;;;;;;;-128.00;-1.00;-1.00;102393;1257;1010719;-50
2023/03/03 10:15:24;;;;;;;8.60;4.20;;;;;;;-128.00;-1.00;-1.00;102184;1262;1011392;-48
2023/03/03 10:18:34;;;;;;;6.60;4.70;;;;;;;-128.00;-1.00;-1.00;102316;1259;1013542;-51
2023/03/03 10:21:17;;;;;;;5.70;3.60;;;;;;;-128.00;-1.00;-1.00;103136;1259;1013418;-44
2023/03/03 10:24:10;;;;;;;5.20;4.10;;;;;;;-128.00;-1.00;-1.00;102289;1262;1013092;-50
2023/03/03 10:27:26;;;;;;;7.60;4.20;;;;;;;-128.00;-1.00;-1.00;102293;1257;1011022;-46
2023/03/03 10:30:02;;;;;;;7.90;4.30;;;;;;;-128.00;-1.00;-1.00;101598;1268;1011061;-50
2023/03/03 10:32:39;;;;;;;6.60;4.70;;;;;;;-128.00;-1.00;-1.00;102253;1264;1013226;-48
2023/03/03 10:35:17;;;;;;;5.50;3.70;;;;;;;-128.00;-1.00;-1.00;101873;1257;1013110;-48
2023/03/03 10:38:13;;;;;;;5.30;3.30;;;;;;;-128.00;-1.00;-1.00;102807;1257;1013313;-48
2023/03/03 10:41:03;;;;;;;4.60;2.80;;;;;;;-128.00;-1.00;-1.00;102922;1261;1010846;-49
2023/03/03 10:43:59;;;;;;;4.60;2.20;;;;;;;-128.00;-1.00;-1.00;102294;1262;1011449;-46
2023/03/03 10:46:45;;;;;;;4.40;2.30;;;;;;;-128.00;-1.00;-1.00;102549;1259;1012898;-49
2023/03/03 10:49:15;;;;;;;;;;;;;;;-128.00;-1.00;-1.00;102086;1257;1013714;-49
2023/03/03 10:52:13;;;;;;;4.80;2.20;;;;;;;-128.00;-1.00;-1.00;102339;1258;1013155;-49
2023/03/03 10:54:54;;;;;;;5.50;3.10;;;;;;;-128.00;-1.00;-1.00;102366;1261;1010524;-46
2023/03/03 10:57:30;;;;;;;3.90;2.10;;;;;;;-128.00;-1.00;-1.00;102164;1262;1011187;-50
2023/03/03 11:00:18;;;;;;;2.40;1.10;;;;;;;-128.00;-1.00;-1.00;102078;1257;1014507;-50
2023/03/03 11:02:53;;;;;;;5.10;1.20;;;;;;;-128.00;-1.00;-1.00;102109;1260;1012332;-51
2023/03/03 11:05:26;;;;;;;2.20;0.90;;;;;;;-128.00;-1.00;-1.00;102088;1257;1013800;-48
2023/03/03 11:07:58;;;;;;;1.80;1.10;;;;;;;-128.00;-1.00;-1.00;102055;1261;1010407;-51
2023/03/03 11:10:51;;;;;;;1.80;1.00;;;;;;;-128.00;-1.00;-1.00;102198;1257;1011814;-48
2023/03/03 11:13:46;;;;;;;2.10;1.30;;;;;;;-128.00;-1.00;-1.00;102301;1261;1012620;-49
2023/03/03 11:16:33;;;;;;;4.50;1.50;;;;;;;-128.00;-1.00;-1.00;102980;1260;1013624;-45
2023/03/03 11:19:33;;;;;;;4.30;1.70;;;;;;;-128.00;-1.00;-1.00;102233;1261;1013293;-51
2023/03/03 11:22:14;;;;;;;2.20;1.20;;;;;;;-128.00;-1.00;-1.00;102182;1262;1010647;-51
2023/03/03 11:24:49;;;;;;;1.50;1.10;;;;;;;-128.00;-1.00;-1.00;102567;1257;1011997;-48
2023/03/03 11:28:08;;;;;;;2.50;1.00;;;;;;;-128.00;-1.00;-1.00;102094;1257;1012852;-48
2023/03/03 11:30:49;;;;;;;2.20;1.20;;;;;;;-128.00;-1.00;-1.00;102201;1262;1012440;-49
2023/03/03 11:33:50;;;;;;;1.80;1.10;;;;;;;-128.00;-1.00;-1.00;102396;1257;1012895;-49
2023/03/03 11:36:42;;;;;;;3.10;1.40;;;;;;;-128.00;-1.00;-1.00;103635;1259;1010120;-49
2023/03/03 11:39:15;;;;;;;2.70;1.40;;;;;;;-128.00;-1.00;-1.00;102132;1259;1011995;-50
2023/03/03 11:42:08;;;;;;;2.80;1.40;;;;;;;-128.00;-1.00;-1.00;102189;1256;1011922;-51
2023/03/03 11:45:00;;;;;;;4.90;1.70;;;;;;;-128.00;-1.00;-1.00;102376;1259;1012574;-46
2023/03/03 11:47:36;;;;;;;2.50;1.40;;;;;;;-128.00;-1.00;-1.00;102046;1259;1012953;-47
2023/03/03 11:50:11;;;;;;;2.50;1.30;;;;;;;-128.00;-1.00;-1.00;102423;1257;1010110;-45